Wilmington, VT (05363)

4:55 PM EDT on May 27, 2015 (GMT -0400)
Wastewater Treatment Plant | | Change Station
CLOSE
Current Station
Personal Weather Station
Location: Wilmington, VT
Elevation: 1500 ft
Nearby Weather Stations

Elev 1500 ft 42.87 °N, 72.88 °W | Updated 16 seconds ago

Partly Cloudy
Partly Cloudy
79.2 °F
Feels Like 82 °F
N
2.0
Wind Variable Wind from SSE
Gusts 3.0 mph

Today
High -- | Low -- °F
--% Chance of Precip.
Yesterday
High -- | Low -- °F
Precip. -- in
5:18 AM 8:19 PM
Waxing Gibbous, 70% visible
Pressure 30.04 in
Visibility 10.0 miles
Clouds Scattered Clouds 4200 ft
Heat Index 82 °F
Dew Point 68 °F
Humidity 68%
Rainfall 0.00 in
Snow Depth Not available.
UV 4 out of 12
Pollen 6.60 out of 12
Air Quality Not available.
Flu Activity Local Activity
SPECI KDDH 272046Z AUTO 28005KT 10SM SCT042 26/18 A3004 RMK AO2 LTG DSNT SW-NW T02560183

More Conditions Fewer Conditions

Pressure 30.04 in
Visibility 10.0 miles
Clouds Scattered Clouds 4200 ft
Heat Index 82 °F
Dew Point 68 °F
Humidity 68%
Rainfall 0.00 in
Snow Depth Not available.
UV 4 out of 12
Pollen 6.60 out of 12
Air Quality Not available.
Flu Activity Local Activity
SPECI KDDH 272046Z AUTO 28005KT 10SM SCT042 26/18 A3004 RMK AO2 LTG DSNT SW-NW T02560183

More Conditions Fewer Conditions

10-Day Weather Forecast

Almanac

Astronomy

May. 27, 2015 Rise Set
Actual Time
Civil Twilight
Nautical Twilight
Astronomical Twilight
Moon
Length of Visible Light
Length of Day
Tomorrow will be .
, % of the Moon is Illuminated

Today's Extremes

State Highs State Lows

Community

WunderPhotos

Upload Photos

1,824,782 photos uploaded!

WunderBlogs® & News

Nearby

Air Quality

  Air Quality AQ Index Pollutant
Not available.

Snow Depth

Station Depth Elevation

Earthquake Activity

City Distance Mag. Time & Date
Minimum magnitude displayed is 2.5.

Coastal Water Temperatures

Place Temperature

Stations

Nearby Weather Stations

Station Location Temp. Windchill Dew Point Humidity Wind Precip. Elev Updated Type
                   
Severe Thunderstorm Watch
Statement as of 4:43 PM EDT on May 27, 2015

Severe Thunderstorm Watch 227 remains in effect until 700 PM EDT

VT
. Vermont counties included are

Addison Bennington Caledonia
Chittenden Essex Franklin
Grand Isle LaMoille Orange
Orleans Rutland Washington
Windham Windsor